MMMT

Details ICAO MMMT (MTT)
Name MINATITLAN
Region Mexico
Timezone America/Mexico_City (UTC-6.0)
Plans Departing 8
Arriving 11
Stats Elevation 36 ft / 11 m (AMSL)
Location 18.103420° -94.580681°
Runways 1
Magnetic Variation 2.710° E
Sunrise 2017-12-15 12:43:30 UTC / 2017-12-15 06:43:30 Local
Sunset 2017-12-15 23:46:29 UTC / 2017-12-15 17:46:29 Local
Advertisement - Login to hide

Runways

ID Width Length Bearing (true) Bearing (mag) Surface Threshold Offset Overrun Length
01 148 ft / 45 m 6,931 ft / 2,113 m 17.70° 14.99° Asphalt 0 ft / 0 m 200 ft / 61 m
19 148 ft / 45 m 6,931 ft / 2,113 m 197.70° 194.99° Asphalt 0 ft / 0 m 180 ft / 55 m

Map

Weather


0- 5 10 15 20 25 30 35+ Temperature / ° C

Clouds and Precipitation
Forecast for 2017-12-15 12:00 UTC. Updated 2 hours ago

Ground ~20,000 ft ~40,000 ft Winds

METAR

MMMT 151042Z 00000KT 7SM FEW020 18/14 A2990 RMK 8/100 RTS

TAF

TAF MMMT 150507Z 1506/1606 36010KT 6SM HZ SCT020 FM151800 34010KT P6SM BKN020 BECMG 1523/1600 34010G20KT TEMPO 1600/1604 5SM -RA BKN010

Frequencies

Tower 118.10 MHz TWR
Warning: Do not use this data for real-world aviation or navigation. No guarantee of current accuracy is given.